Time;durP1;ratioP1;P1;durP2;ratioP2;P2;SDS_P1;SDS_P2;PMS_P1;PMS_P2;Temp;Humidity;BMP_temperature;BMP_pressure;BME280_temperature;BME280_humidity;BME280_pressure;Samples;Min_cycle;Max_cycle;Signal;HPM_P1;HPM_P2
2024/03/17 00:01:17;;;;;;;8.60;7.80;;;14.30;64.90;;;;;;5012511;28;20467;-59
2024/03/17 00:03:43;;;;;;;13.47;8.53;;;14.30;65.00;;;;;;5006524;28;20567;-60
2024/03/17 00:06:09;;;;;;;8.73;7.83;;;14.20;65.00;;;;;;5010669;28;20566;-60
2024/03/17 00:08:34;;;;;;;8.63;7.20;;;13.80;66.10;;;;;;5004322;28;20421;-60
2024/03/17 00:11:00;;;;;;;8.60;6.17;;;13.40;67.60;;;;;;5012554;28;20909;-60
2024/03/17 00:13:26;;;;;;;7.10;6.40;;;13.20;69.00;;;;;;5008330;28;20654;-60
2024/03/17 00:15:52;;;;;;;8.00;6.13;;;13.30;69.50;;;;;;5011087;28;20328;-60
2024/03/17 00:18:17;;;;;;;7.17;6.07;;;13.50;68.50;;;;;;5005338;28;20201;-59
2024/03/17 00:20:43;;;;;;;7.57;6.13;;;13.40;68.10;;;;;;5010331;28;20186;-59
2024/03/17 00:23:11;;;;;;;8.13;6.47;;;13.10;68.90;;;;;;5006795;28;20476;-60
2024/03/17 00:25:37;;;;;;;7.93;6.40;;;12.90;69.80;;;;;;5008096;28;20639;-61
2024/03/17 00:28:03;;;;;;;7.00;6.00;;;12.70;70.40;;;;;;5007145;28;20437;-59
2024/03/17 00:30:29;;;;;;;6.93;6.23;;;12.90;70.40;;;;;;5007406;28;20487;-60
2024/03/17 00:32:55;;;;;;;13.27;7.33;;;13.00;69.20;;;;;;5007957;28;20175;-60
2024/03/17 00:35:21;;;;;;;23.37;7.20;;;12.90;68.20;;;;;;5011832;28;20186;-60
2024/03/17 00:37:50;;;;;;;29.03;8.60;;;12.60;70.30;;;;;;5005315;28;20452;-60
2024/03/17 00:40:17;;;;;;;19.90;7.20;;;12.60;71.10;;;;;;5010200;28;20658;-59
2024/03/17 00:42:42;;;;;;;34.33;8.47;;;12.70;71.10;;;;;;5006672;28;20473;-60
2024/03/17 00:45:10;;;;;;;30.00;9.27;;;12.70;71.30;;;;;;5011294;28;20490;-60
2024/03/17 00:47:36;;;;;;;28.43;10.73;;;12.90;71.20;;;;;;5006572;28;20491;-58
2024/03/17 00:50:04;;;;;;;19.73;10.00;;;13.00;70.70;;;;;;5007938;28;20433;-58
2024/03/17 00:52:30;;;;;;;25.47;9.90;;;13.00;70.20;;;;;;5009716;28;20452;-61
2024/03/17 00:54:55;;;;;;;25.03;10.13;;;13.00;70.50;;;;;;5007931;28;20417;-59
2024/03/17 00:57:21;;;;;;;49.80;9.60;;;13.10;70.90;;;;;;5005077;28;20648;-60
2024/03/17 00:59:46;;;;;;;27.07;9.80;;;13.10;70.10;;;;;;5007349;28;20185;-60
2024/03/17 01:02:13;;;;;;;26.33;9.30;;;12.90;70.80;;;;;;5009571;28;20240;-59
2024/03/17 01:04:39;;;;;;;53.13;10.90;;;12.90;71.70;;;;;;5006223;28;20216;-60
2024/03/17 01:07:05;;;;;;;14.80;9.63;;;12.90;71.30;;;;;;5006690;28;20444;-60
2024/03/17 01:09:31;;;;;;;26.07;10.10;;;12.70;72.50;;;;;;5010881;28;20440;-60
2024/03/17 01:11:56;;;;;;;27.67;9.50;;;12.70;73.00;;;;;;5007487;28;20213;-60
2024/03/17 01:14:22;;;;;;;15.60;9.60;;;12.80;73.10;;;;;;5009909;28;20186;-60
2024/03/17 01:16:47;;;;;;;21.63;10.40;;;12.80;72.80;;;;;;5004429;28;20217;-60
2024/03/17 01:19:13;;;;;;;16.67;9.80;;;12.90;72.50;;;;;;5008260;28;20214;-60
2024/03/17 01:21:38;;;;;;;12.10;10.27;;;13.00;72.20;;;;;;5008094;28;20224;-61
2024/03/17 01:24:04;;;;;;;19.27;9.50;;;13.00;71.70;;;;;;5010779;28;20190;-58
2024/03/17 01:26:30;;;;;;;12.30;8.40;;;13.00;71.70;;;;;;5005516;28;20248;-60
2024/03/17 01:28:55;;;;;;;47.40;10.20;;;12.90;72.00;;;;;;5008197;28;20194;-60
2024/03/17 01:31:21;;;;;;;65.60;10.83;;;12.80;71.80;;;;;;5006100;28;20185;-60
2024/03/17 01:33:46;;;;;;;31.00;9.10;;;12.80;71.60;;;;;;5007157;28;20213;-60
2024/03/17 01:36:12;;;;;;;18.87;8.30;;;12.70;71.90;;;;;;5007102;28;20193;-59
2024/03/17 01:38:38;;;;;;;18.23;10.03;;;12.70;72.80;;;;;;5005611;28;20261;-60
2024/03/17 01:41:04;;;;;;;38.73;9.60;;;12.90;72.50;;;;;;5007370;28;21147;-60
2024/03/17 01:43:30;;;;;;;14.37;8.90;;;12.90;72.00;;;;;;5005254;28;20217;-59
2024/03/17 01:45:58;;;;;;;12.27;9.13;;;13.00;71.70;;;;;;5006495;28;20435;-60
2024/03/17 01:48:24;;;;;;;12.20;9.00;;;13.20;71.20;;;;;;5008718;28;20186;-60
2024/03/17 01:50:53;;;;;;;32.80;9.97;;;13.20;70.90;;;;;;5006044;28;20433;-60
2024/03/17 01:53:20;;;;;;;14.40;8.93;;;13.30;70.70;;;;;;5001884;28;20194;-59
2024/03/17 01:55:47;;;;;;;15.63;9.63;;;13.40;70.40;;;;;;5008640;28;20425;-61
2024/03/17 01:58:13;;;;;;;27.00;9.83;;;13.50;70.30;;;;;;5008417;28;20484;-64
2024/03/17 02:00:39;;;;;;;17.53;9.70;;;13.50;70.10;;;;;;5006778;28;20499;-63
2024/03/17 02:03:06;;;;;;;16.43;8.23;;;13.50;69.80;;;;;;5007400;28;20476;-61
2024/03/17 02:05:33;;;;;;;14.20;9.63;;;13.50;69.70;;;;;;5003750;28;20520;-63
2024/03/17 02:07:59;;;;;;;23.40;8.27;;;13.40;69.60;;;;;;5005953;28;20495;-63
2024/03/17 02:10:25;;;;;;;37.10;8.40;;;13.40;69.40;;;;;;5009772;28;20464;-62
2024/03/17 02:12:51;;;;;;;39.77;9.70;;;13.30;69.10;;;;;;5005431;28;20796;-65
2024/03/17 02:15:17;;;;;;;80.60;11.50;;;13.20;69.00;;;;;;5008086;28;20751;-62
2024/03/17 02:17:44;;;;;;;27.83;8.97;;;13.20;69.20;;;;;;5003943;28;20499;-63
2024/03/17 02:20:11;;;;;;;32.90;9.57;;;13.00;69.70;;;;;;5005927;28;20424;-62
2024/03/17 02:22:37;;;;;;;27.47;9.57;;;13.10;69.90;;;;;;5004362;28;20496;-63
2024/03/17 02:25:03;;;;;;;10.57;8.60;;;13.10;69.20;;;;;;5005546;28;20930;-57
2024/03/17 02:27:29;;;;;;;21.67;8.63;;;13.00;69.50;;;;;;5006985;28;20441;-62
2024/03/17 02:29:55;;;;;;;15.80;8.63;;;13.00;69.70;;;;;;5003616;28;20452;-63
2024/03/17 02:32:22;;;;;;;10.93;8.77;;;12.60;70.10;;;;;;5006699;28;20190;-64
2024/03/17 02:34:48;;;;;;;38.67;10.17;;;12.70;70.70;;;;;;5007463;28;20497;-59
2024/03/17 02:37:14;;;;;;;15.63;9.43;;;12.70;70.60;;;;;;5006782;28;20492;-59
2024/03/17 02:39:40;;;;;;;12.67;8.70;;;12.70;71.00;;;;;;5004718;28;20193;-62
2024/03/17 02:42:09;;;;;;;36.17;8.93;;;12.80;71.00;;;;;;5006840;28;20205;-62
2024/03/17 02:44:36;;;;;;;23.87;8.30;;;12.80;70.30;;;;;;5005785;28;20416;-63
2024/03/17 02:47:04;;;;;;;12.57;8.50;;;12.90;70.40;;;;;;5003345;28;20461;-62
2024/03/17 02:49:39;;;;;;;14.00;9.37;;;12.80;70.30;;;;;;5008253;28;20417;-63
2024/03/17 02:52:11;;;;;;;17.20;9.20;;;12.90;70.60;;;;;;5004163;28;20874;-60
2024/03/17 02:54:38;;;;;;;17.93;8.73;;;12.80;70.30;;;;;;5006921;28;20424;-62
2024/03/17 02:57:04;;;;;;;17.47;7.87;;;12.60;70.10;;;;;;5003357;28;20447;-64
2024/03/17 02:59:31;;;;;;;10.70;8.13;;;12.10;71.80;;;;;;5005784;28;20436;-62
2024/03/17 03:01:58;;;;;;;16.50;9.20;;;12.10;73.10;;;;;;5007757;28;20435;-62
2024/03/17 03:04:24;;;;;;;18.20;9.43;;;12.40;72.70;;;;;;5004839;28;20515;-62
2024/03/17 03:06:50;;;;;;;16.97;8.43;;;12.50;72.30;;;;;;5004491;28;20865;-62
2024/03/17 03:09:21;;;;;;;11.10;8.23;;;12.70;71.40;;;;;;5003007;28;20181;-61
2024/03/17 03:11:47;;;;;;;8.43;7.50;;;12.60;71.50;;;;;;5005523;28;20197;-61
2024/03/17 03:14:13;;;;;;;10.40;7.80;;;12.70;71.20;;;;;;5008207;28;20835;-60
2024/03/17 03:16:39;;;;;;;11.20;9.10;;;12.80;70.70;;;;;;5002080;28;20457;-60
2024/03/17 03:19:05;;;;;;;10.70;9.47;;;12.90;70.30;;;;;;5006473;28;20182;-65
2024/03/17 03:21:31;;;;;;;10.07;8.67;;;13.00;70.00;;;;;;5006565;28;20420;-62
2024/03/17 03:23:56;;;;;;;10.47;7.80;;;13.10;69.70;;;;;;5008580;28;20943;-58
2024/03/17 03:26:23;;;;;;;8.10;7.20;;;12.90;69.20;;;;;;5003634;28;20475;-62
2024/03/17 03:28:49;;;;;;;11.27;7.80;;;12.90;69.70;;;;;;5006312;28;20556;-62
2024/03/17 03:31:15;;;;;;;23.87;9.03;;;12.80;70.40;;;;;;5004045;28;20417;-59
2024/03/17 03:33:41;;;;;;;8.90;7.50;;;12.70;69.60;;;;;;5005724;28;20408;-61
2024/03/17 03:36:14;;;;;;;12.53;8.77;;;12.60;70.00;;;;;;5007173;28;20239;-62
2024/03/17 03:38:39;;;;;;;8.90;7.90;;;12.60;70.50;;;;;;5003850;28;20417;-59
2024/03/17 03:41:09;;;;;;;9.20;7.80;;;12.70;70.40;;;;;;5005451;28;20928;-61
2024/03/17 03:43:35;;;;;;;15.43;9.77;;;12.80;70.20;;;;;;5003270;28;20237;-60
2024/03/17 03:46:02;;;;;;;56.67;8.83;;;12.80;70.50;;;;;;5005609;28;20948;-61
2024/03/17 03:48:27;;;;;;;12.07;8.30;;;12.80;70.20;;;;;;5007656;28;20666;-61
2024/03/17 03:50:54;;;;;;;9.00;7.93;;;12.90;70.10;;;;;;5003632;28;20439;-62
2024/03/17 03:53:20;;;;;;;59.50;10.43;;;13.00;70.00;;;;;;5001208;28;20174;-60
2024/03/17 03:55:45;;;;;;;27.63;8.40;;;12.90;69.50;;;;;;5000267;28;20430;-61
2024/03/17 03:58:12;;;;;;;57.03;8.40;;;12.80;69.50;;;;;;5006829;28;20444;-63
2024/03/17 04:00:41;;;;;;;46.53;7.87;;;12.80;69.80;;;;;;5005317;28;20197;-59
2024/03/17 04:03:07;;;;;;;37.27;8.63;;;12.60;69.50;;;;;;5005939;28;20477;-62
2024/03/17 04:05:34;;;;;;;29.97;8.00;;;12.50;70.30;;;;;;5003028;28;20429;-61
2024/03/17 04:08:00;;;;;;;25.60;7.50;;;12.50;70.60;;;;;;5004398;28;20198;-62
2024/03/17 04:10:26;;;;;;;12.90;7.13;;;12.50;71.50;;;;;;5008364;28;20436;-58
2024/03/17 04:12:53;;;;;;;25.00;8.13;;;12.60;70.60;;;;;;5003734;28;20825;-64
2024/03/17 04:15:19;;;;;;;40.13;8.13;;;12.60;70.30;;;;;;5006850;28;20174;-62
2024/03/17 04:17:44;;;;;;;8.20;7.40;;;12.40;69.70;;;;;;5002580;28;21061;-62
2024/03/17 04:20:13;;;;;;;31.57;7.37;;;12.10;71.00;;;;;;5005310;28;20440;-60
2024/03/17 04:22:39;;;;;;;17.30;7.40;;;12.20;71.70;;;;;;5008296;28;20214;-61
2024/03/17 04:25:05;;;;;;;102.37;9.70;;;12.10;71.60;;;;;;5004071;28;20778;-62
2024/03/17 04:27:31;;;;;;;21.83;6.93;;;11.70;72.20;;;;;;5004719;28;20476;-59
2024/03/17 04:30:00;;;;;;;8.27;7.23;;;11.60;74.60;;;;;;5005641;28;20441;-61
2024/03/17 04:32:26;;;;;;;135.13;13.40;;;11.90;74.20;;;;;;5010490;28;20183;-62
2024/03/17 04:34:52;;;;;;;15.83;10.07;;;12.00;73.00;;;;;;5009843;28;20435;-61
2024/03/17 04:37:18;;;;;;;55.90;9.63;;;11.80;74.40;;;;;;5007952;28;20429;-61
2024/03/17 04:39:45;;;;;;;68.53;9.53;;;11.80;73.90;;;;;;5007786;28;20194;-59
2024/03/17 04:42:12;;;;;;;49.73;9.13;;;11.70;74.50;;;;;;5007792;28;20210;-63
2024/03/17 04:44:37;;;;;;;33.27;8.70;;;11.50;75.40;;;;;;5007605;28;20987;-60
2024/03/17 04:47:07;;;;;;;26.37;8.07;;;11.30;77.00;;;;;;5006901;28;20522;-61
2024/03/17 04:49:50;;;;;;;12.40;7.77;;;11.30;77.60;;;;;;5010121;28;20240;-62
2024/03/17 04:52:16;;;;;;;14.60;7.60;;;11.30;77.80;;;;;;5005069;28;21010;-61
2024/03/17 04:54:42;;;;;;;39.67;9.60;;;11.40;77.70;;;;;;5008737;28;20549;-61
2024/03/17 04:57:08;;;;;;;44.30;9.33;;;11.50;76.70;;;;;;5003415;28;20436;-59
2024/03/17 04:59:35;;;;;;;20.83;9.13;;;11.50;76.40;;;;;;5007743;28;20417;-63
2024/03/17 05:02:00;;;;;;;42.77;8.93;;;11.50;76.50;;;;;;5009128;28;20421;-61
2024/03/17 05:04:26;;;;;;;31.67;8.00;;;11.60;75.70;;;;;;5006064;28;20427;-62
2024/03/17 05:06:52;;;;;;;11.30;8.37;;;11.60;75.90;;;;;;5005995;28;20214;-61
2024/03/17 05:09:18;;;;;;;30.53;9.20;;;11.80;75.40;;;;;;5010710;28;20178;-61
2024/03/17 05:11:44;;;;;;;45.70;9.73;;;11.80;74.60;;;;;;5006881;28;20691;-62
2024/03/17 05:14:10;;;;;;;65.13;9.90;;;11.80;73.70;;;;;;5009772;28;20478;-59
2024/03/17 05:16:36;;;;;;;60.13;9.50;;;11.90;73.30;;;;;;5004543;28;20437;-59
2024/03/17 05:19:01;;;;;;;11.43;6.77;;;11.70;74.00;;;;;;5008259;28;20440;-63
2024/03/17 05:21:30;;;;;;;37.07;8.57;;;11.70;74.80;;;;;;5008579;28;20206;-64
2024/03/17 05:23:57;;;;;;;9.83;7.13;;;11.80;74.30;;;;;;5010687;28;20217;-63
2024/03/17 05:26:24;;;;;;;20.57;8.00;;;12.00;73.50;;;;;;5005017;28;20440;-63
2024/03/17 05:28:50;;;;;;;25.30;7.67;;;12.20;72.60;;;;;;5007902;28;20432;-63
2024/03/17 05:31:17;;;;;;;56.17;9.87;;;12.20;72.30;;;;;;5005545;28;20443;-63
2024/03/17 05:33:46;;;;;;;10.03;7.33;;;12.20;71.40;;;;;;5006993;28;20417;-60
2024/03/17 05:36:12;;;;;;;19.23;7.27;;;12.10;72.20;;;;;;5008120;28;20469;-62
2024/03/17 05:38:37;;;;;;;29.60;7.47;;;12.20;72.10;;;;;;5004817;28;20518;-64
2024/03/17 05:41:05;;;;;;;9.47;6.80;;;12.10;71.50;;;;;;5006383;28;20174;-62
2024/03/17 05:43:38;;;;;;;20.27;6.60;;;12.10;72.20;;;;;;5010726;28;20221;-59
2024/03/17 05:46:07;;;;;;;12.60;6.63;;;11.90;71.60;;;;;;5004382;28;20816;-63
2024/03/17 05:48:34;;;;;;;25.43;7.30;;;12.00;71.80;;;;;;5006910;28;20432;-60
2024/03/17 05:51:02;;;;;;;20.83;6.67;;;11.70;72.60;;;;;;5005567;28;20432;-62
2024/03/17 05:53:28;;;;;;;35.50;7.57;;;11.90;72.90;;;;;;5006108;28;20433;-59
2024/03/17 05:55:55;;;;;;;15.30;6.70;;;12.00;72.40;;;;;;5008006;28;21078;-67
2024/03/17 05:58:21;;;;;;;26.93;7.90;;;12.10;71.70;;;;;;5006035;28;20479;-63
2024/03/17 06:00:46;;;;;;;9.90;6.80;;;12.20;71.70;;;;;;5007386;28;20436;-63
2024/03/17 06:03:13;;;;;;;33.17;7.20;;;12.10;71.60;;;;;;5005564;28;20565;-63
2024/03/17 06:05:40;;;;;;;9.90;5.90;;;12.10;71.80;;;;;;5007104;28;20229;-63
2024/03/17 06:08:08;;;;;;;19.10;6.60;;;12.10;71.40;;;;;;5004828;28;20441;-65
2024/03/17 06:10:35;;;;;;;24.97;7.27;;;12.10;71.80;;;;;;5009419;28;20424;-66
2024/03/17 06:13:02;;;;;;;27.47;6.77;;;12.00;71.30;;;;;;5003843;28;20417;-63
2024/03/17 06:15:28;;;;;;;48.73;8.37;;;11.30;73.80;;;;;;5007935;28;20429;-64
2024/03/17 06:17:54;;;;;;;9.27;6.23;;;10.90;76.00;;;;;;5002187;28;20438;-65
2024/03/17 06:20:21;;;;;;;53.03;8.17;;;10.80;78.50;;;;;;5000577;28;20293;-63
2024/03/17 06:22:47;;;;;;;34.50;8.00;;;11.00;78.30;;;;;;5008114;28;20621;-62
2024/03/17 06:25:16;;;;;;;23.13;7.03;;;11.00;77.80;;;;;;5005492;28;20417;-63
2024/03/17 06:27:42;;;;;;;22.17;6.97;;;11.00;78.30;;;;;;5005528;28;20722;-63
2024/03/17 06:30:14;;;;;;;113.03;13.43;;;11.10;78.50;;;;;;5004062;28;20455;-64
2024/03/17 06:32:45;;;;;;;65.77;9.37;;;11.00;77.20;;;;;;5006422;28;20426;-62
2024/03/17 06:35:11;;;;;;;56.03;8.57;;;10.90;78.30;;;;;;5009163;28;20421;-63
2024/03/17 06:37:38;;;;;;;13.53;6.00;;;10.70;78.60;;;;;;5003555;28;20474;-62
2024/03/17 06:40:05;;;;;;;19.63;7.27;;;11.00;79.00;;;;;;5007970;28;20793;-62
2024/03/17 06:42:31;;;;;;;31.83;7.77;;;11.10;77.90;;;;;;5003593;28;20841;-61
2024/03/17 06:44:56;;;;;;;46.20;8.53;;;11.10;77.90;;;;;;5008233;28;20425;-64
2024/03/17 06:47:22;;;;;;;150.10;13.90;;;10.90;79.00;;;;;;5004911;28;20221;-62
2024/03/17 06:49:48;;;;;;;62.10;8.43;;;10.90;78.00;;;;;;5007943;28;20212;-62
2024/03/17 06:52:13;;;;;;;29.23;8.13;;;10.70;78.80;;;;;;5003221;28;20433;-61
2024/03/17 06:54:39;;;;;;;37.00;9.43;;;10.30;82.20;;;;;;5006810;28;20190;-62
2024/03/17 06:57:05;;;;;;;8.50;6.53;;;10.60;83.40;;;;;;5002490;28;20737;-62
2024/03/17 06:59:34;;;;;;;69.37;9.17;;;10.90;82.50;;;;;;5005835;28;20417;-59
2024/03/17 07:01:59;;;;;;;27.10;7.63;;;11.20;80.20;;;;;;5007717;28;20515;-63
2024/03/17 07:04:25;;;;;;;21.97;7.07;;;11.30;79.30;;;;;;5004589;28;20519;-62
2024/03/17 07:06:51;;;;;;;17.70;6.43;;;11.20;79.50;;;;;;5004766;28;20202;-65
2024/03/17 07:09:17;;;;;;;9.33;7.50;;;11.20;79.60;;;;;;5003550;28;20646;-59
2024/03/17 07:11:44;;;;;;;8.10;6.80;;;11.30;79.70;;;;;;5005868;28;20191;-65
2024/03/17 07:14:09;;;;;;;8.47;6.20;;;11.50;78.50;;;;;;5008543;28;20924;-61
2024/03/17 07:16:35;;;;;;;9.23;6.10;;;11.30;78.40;;;;;;5003466;28;20430;-63
2024/03/17 07:19:02;;;;;;;7.63;6.50;;;11.40;77.70;;;;;;5006635;28;20551;-64
2024/03/17 07:21:27;;;;;;;7.00;5.93;;;11.30;79.00;;;;;;5002555;28;20178;-61
2024/03/17 07:23:53;;;;;;;7.40;6.27;;;11.60;78.00;;;;;;5007640;28;20480;-62
2024/03/17 07:26:19;;;;;;;9.70;6.00;;;11.70;77.50;;;;;;4999859;28;20206;-64
2024/03/17 07:28:44;;;;;;;9.17;6.00;;;11.50;76.50;;;;;;5003655;28;20194;-63
2024/03/17 07:31:11;;;;;;;7.40;6.70;;;11.20;78.80;;;;;;5003600;28;20185;-62
2024/03/17 07:33:37;;;;;;;10.53;6.50;;;11.10;79.60;;;;;;5005617;28;20185;-62
2024/03/17 07:36:05;;;;;;;6.37;5.63;;;11.40;79.40;;;;;;5006481;28;20425;-66
2024/03/17 07:38:30;;;;;;;7.17;6.47;;;11.80;78.40;;;;;;5004125;28;20194;-60
2024/03/17 07:41:00;;;;;;;7.83;6.93;;;12.30;77.10;;;;;;5005535;28;20845;-62
2024/03/17 07:43:26;;;;;;;6.10;5.50;;;12.60;75.30;;;;;;5003617;28;20214;-63
2024/03/17 07:46:06;;;;;;;9.10;6.57;;;12.60;73.80;;;;;;5005110;28;20429;-60
2024/03/17 07:48:37;;;;;;;7.60;6.83;;;12.50;73.20;;;;;;5003365;28;20851;-64
2024/03/17 07:51:08;;;;;;;7.97;6.13;;;12.10;73.60;;;;;;5004974;28;20897;-62
2024/03/17 07:53:35;;;;;;;9.20;7.00;;;12.10;75.00;;;;;;5005393;28;20413;-64
2024/03/17 07:56:19;;;;;;;7.40;6.20;;;12.40;74.90;;;;;;5003325;28;20417;-62
2024/03/17 07:58:45;;;;;;;7.57;6.70;;;12.70;74.60;;;;;;5004054;28;20456;-65
2024/03/17 08:01:12;;;;;;;7.20;6.50;;;13.10;73.70;;;;;;5008676;28;20940;-64
2024/03/17 08:03:40;;;;;;;8.23;7.47;;;13.20;72.70;;;;;;5006206;28;20218;-63
2024/03/17 08:06:07;;;;;;;7.60;6.80;;;13.40;73.70;;;;;;5011261;28;20433;-61
2024/03/17 08:08:34;;;;;;;8.73;7.50;;;13.70;73.70;;;;;;5004760;28;20440;-62
2024/03/17 08:11:02;;;;;;;6.90;6.20;;;13.70;70.10;;;;;;5012121;28;20464;-64
2024/03/17 08:13:33;;;;;;;6.87;6.00;;;13.50;73.30;;;;;;5008109;28;20956;-62
2024/03/17 08:16:01;;;;;;;8.20;7.20;;;13.80;73.60;;;;;;5011127;28;20433;-60
2024/03/17 08:18:27;;;;;;;6.47;5.87;;;14.10;73.30;;;;;;5005114;28;20947;-63
2024/03/17 08:20:54;;;;;;;6.73;6.03;;;14.20;71.60;;;;;;5010081;28;20849;-60
2024/03/17 08:23:20;;;;;;;6.90;5.83;;;14.30;70.80;;;;;;5006113;28;20477;-64
2024/03/17 08:25:56;;;;;;;6.10;5.50;;;14.30;69.60;;;;;;5007813;28;20483;-65
2024/03/17 08:28:23;;;;;;;6.30;5.80;;;14.30;70.70;;;;;;5003234;28;20424;-63
2024/03/17 08:30:59;;;;;;;7.47;6.70;;;14.30;69.60;;;;;;5006417;28;20452;-63
2024/03/17 08:33:25;;;;;;;8.93;6.70;;;14.50;70.30;;;;;;5003481;28;20431;-61
2024/03/17 08:35:58;;;;;;;7.07;6.37;;;14.70;69.80;;;;;;5010211;28;20484;-65
2024/03/17 08:38:25;;;;;;;9.83;5.67;;;14.90;69.50;;;;;;5001217;28;20980;-62
2024/03/17 08:40:52;;;;;;;6.70;6.10;;;15.00;68.60;;;;;;5008228;28;20846;-65
2024/03/17 08:43:19;;;;;;;7.20;6.50;;;15.10;67.50;;;;;;5006038;28;20508;-66
2024/03/17 08:45:45;;;;;;;7.70;6.90;;;15.20;67.00;;;;;;5008225;28;20422;-62
2024/03/17 08:48:11;;;;;;;6.60;6.00;;;15.10;66.90;;;;;;5009990;28;20448;-61
2024/03/17 08:50:37;;;;;;;7.00;6.30;;;14.90;67.20;;;;;;5006087;28;20413;-63
2024/03/17 08:53:03;;;;;;;7.00;6.03;;;14.90;67.30;;;;;;5009998;28;20193;-63
2024/03/17 08:55:28;;;;;;;7.17;6.47;;;15.10;67.40;;;;;;5005077;28;20241;-65
2024/03/17 08:57:54;;;;;;;7.33;5.80;;;15.30;67.40;;;;;;5008789;28;20202;-68
2024/03/17 09:00:19;;;;;;;6.23;5.73;;;15.40;66.80;;;;;;5005902;28;20261;-61
2024/03/17 09:02:45;;;;;;;6.03;5.50;;;15.60;66.30;;;;;;5010142;28;20224;-62
2024/03/17 09:05:12;;;;;;;6.67;6.07;;;15.70;66.00;;;;;;5004583;28;20269;-62
2024/03/17 09:07:38;;;;;;;5.30;4.90;;;15.80;65.40;;;;;;5008610;28;20693;-62
2024/03/17 09:10:04;;;;;;;6.73;5.70;;;15.90;65.70;;;;;;5003077;28;20433;-62
2024/03/17 09:12:30;;;;;;;7.77;5.30;;;16.00;65.80;;;;;;5008389;28;20194;-63
2024/03/17 09:14:55;;;;;;;6.03;5.53;;;16.10;65.40;;;;;;5007872;28;20996;-61
2024/03/17 09:17:21;;;;;;;5.97;5.37;;;16.30;65.80;;;;;;5005900;28;20235;-63
2024/03/17 09:19:49;;;;;;;5.70;5.20;;;16.20;63.60;;;;;;5008014;28;20182;-62
2024/03/17 09:22:15;;;;;;;5.60;5.10;;;16.20;64.80;;;;;;5011051;28;20673;-63
2024/03/17 09:24:40;;;;;;;5.77;5.17;;;16.30;63.50;;;;;;5006559;28;20429;-65
2024/03/17 09:27:06;;;;;;;5.73;5.10;;;16.40;62.90;;;;;;5008931;28;20202;-60
2024/03/17 09:29:33;;;;;;;5.50;4.93;;;16.60;62.50;;;;;;5004073;28;20261;-62
2024/03/17 09:31:58;;;;;;;5.63;4.70;;;16.80;61.70;;;;;;5010173;28;20194;-63
2024/03/17 09:34:24;;;;;;;5.13;4.73;;;17.00;62.20;;;;;;5006298;28;20459;-62
2024/03/17 09:36:50;;;;;;;4.77;4.27;;;17.20;62.10;;;;;;5008205;28;20697;-60
2024/03/17 09:39:16;;;;;;;4.73;4.33;;;17.40;60.70;;;;;;5003978;28;20189;-61
2024/03/17 09:41:42;;;;;;;4.63;4.23;;;17.60;58.40;;;;;;5008502;28;20620;-63
2024/03/17 09:44:13;;;;;;;4.77;4.40;;;17.70;57.80;;;;;;5003658;28;20206;-63
2024/03/17 09:46:38;;;;;;;5.20;4.80;;;17.80;58.10;;;;;;5006193;28;20460;-66
2024/03/17 09:49:04;;;;;;;5.43;4.20;;;17.90;58.40;;;;;;5007912;28;20428;-65
2024/03/17 09:51:31;;;;;;;4.83;4.47;;;18.00;57.90;;;;;;5006567;28;20635;-63
2024/03/17 09:53:57;;;;;;;5.27;4.87;;;18.10;58.00;;;;;;5005825;28;20611;-62
2024/03/17 09:56:23;;;;;;;5.23;4.73;;;18.30;57.30;;;;;;5004603;28;20441;-65
2024/03/17 09:58:50;;;;;;;6.20;4.67;;;18.40;56.40;;;;;;5003111;28;20561;-63
2024/03/17 10:01:16;;;;;;;5.27;4.70;;;18.50;56.20;;;;;;5010454;28;20185;-63
2024/03/17 10:03:54;;;;;;;4.60;4.13;;;18.40;55.80;;;;;;5003747;28;21367;-62
2024/03/17 10:06:21;;;;;;;4.97;4.47;;;18.30;55.30;;;;;;5002479;28;20482;-63
2024/03/17 10:08:52;;;;;;;4.20;3.77;;;18.30;55.40;;;;;;5001666;28;20426;-64
2024/03/17 10:11:20;;;;;;;5.73;3.60;;;18.40;54.10;;;;;;5009306;28;20433;-63
2024/03/17 10:13:59;;;;;;;3.80;3.40;;;18.40;52.90;;;;;;5006741;28;20428;-62
2024/03/17 10:16:27;;;;;;;3.60;3.30;;;18.50;51.40;;;;;;5002258;28;20472;-65
2024/03/17 10:19:10;;;;;;;4.27;3.73;;;18.60;49.90;;;;;;5006331;28;20421;-65
2024/03/17 10:21:36;;;;;;;4.43;4.00;;;18.80;50.50;;;;;;5001269;28;20420;-64
2024/03/17 10:24:22;;;;;;;6.60;3.80;;;18.80;50.90;;;;;;5009491;28;20480;-64
2024/03/17 10:26:51;;;;;;;3.63;3.20;;;19.00;51.20;;;;;;5006524;28;20449;-60
2024/03/17 10:29:27;;;;;;;3.50;3.20;;;19.10;50.20;;;;;;5004687;28;20474;-63
2024/03/17 10:31:58;;;;;;;3.47;3.17;;;19.10;49.40;;;;;;5008443;28;21090;-59
2024/03/17 10:34:25;;;;;;;3.40;3.20;;;19.20;50.90;;;;;;5004132;28;20417;-65
2024/03/17 10:37:14;;;;;;;3.90;2.90;;;19.30;50.00;;;;;;5007871;28;20880;-63
2024/03/17 10:39:41;;;;;;;4.20;2.97;;;19.20;47.10;;;;;;5005051;28;20905;-64
2024/03/17 10:42:09;;;;;;;3.13;2.83;;;19.30;46.70;;;;;;5006587;28;20433;-60
2024/03/17 10:44:37;;;;;;;4.80;3.03;;;19.40;47.80;;;;;;5005293;28;20447;-60
2024/03/17 10:47:09;;;;;;;3.33;3.03;;;19.60;48.40;;;;;;5005142;28;20476;-63
2024/03/17 10:49:37;;;;;;;3.30;2.70;;;19.70;48.60;;;;;;5007267;28;20425;-61
2024/03/17 10:52:09;;;;;;;4.10;3.17;;;19.70;48.10;;;;;;5004458;28;20420;-62
2024/03/17 10:54:35;;;;;;;3.03;2.80;;;19.70;47.40;;;;;;5007576;28;20416;-60
2024/03/17 10:57:19;;;;;;;3.70;2.43;;;19.90;47.40;;;;;;5003280;28;20449;-63
2024/03/17 10:59:47;;;;;;;3.47;3.17;;;19.90;47.00;;;;;;5005861;28;20546;-62
2024/03/17 11:02:35;;;;;;;3.13;2.83;;;19.80;45.70;;;;;;5007625;28;20413;-62
2024/03/17 11:05:02;;;;;;;2.97;2.67;;;19.90;46.50;;;;;;5002483;28;20416;-63
2024/03/17 11:07:28;;;;;;;3.40;2.80;;;20.00;46.10;;;;;;5006171;28;20937;-63
2024/03/17 11:09:55;;;;;;;3.17;2.87;;;20.10;46.40;;;;;;5002600;28;20421;-63
2024/03/17 11:12:47;;;;;;;3.03;2.73;;;20.30;45.10;;;;;;5000266;28;20920;-59
2024/03/17 11:15:18;;;;;;;3.27;2.70;;;20.50;46.00;;;;;;5006514;28;20491;-62
2024/03/17 11:17:52;;;;;;;2.97;2.67;;;20.60;46.40;;;;;;5003187;28;20455;-64
2024/03/17 11:20:25;;;;;;;2.47;2.20;;;20.80;45.90;;;;;;5006619;28;20967;-62
2024/03/17 11:23:09;;;;;;;3.00;2.80;;;20.90;46.40;;;;;;5003301;28;20480;-65
2024/03/17 11:25:35;;;;;;;2.90;2.70;;;20.90;46.20;;;;;;5001374;28;20409;-63
2024/03/17 11:28:02;;;;;;;3.93;3.20;;;21.00;46.20;;;;;;5003904;28;20433;-63
2024/03/17 11:30:54;;;;;;;2.87;2.57;;;21.10;46.10;;;;;;5004183;28;20231;-61
2024/03/17 11:33:38;;;;;;;4.90;3.40;;;21.30;45.90;;;;;;5005842;28;20428;-64
2024/03/17 11:36:24;;;;;;;4.17;3.77;;;21.20;44.50;;;;;;5007015;28;20828;-62
2024/03/17 11:38:53;;;;;;;3.60;3.30;;;21.10;44.20;;;;;;5007129;28;20420;-64
2024/03/17 11:41:34;;;;;;;4.00;3.60;;;20.80;44.90;;;;;;5010947;28;20440;-61
2024/03/17 11:44:15;;;;;;;4.50;3.40;;;20.40;46.10;;;;;;5006852;28;20472;-60
2024/03/17 11:46:45;;;;;;;3.03;2.83;;;20.40;46.50;;;;;;5008725;28;20514;-64
2024/03/17 11:49:22;;;;;;;4.20;2.33;;;20.50;46.10;;;;;;5010797;28;20425;-63
2024/03/17 11:51:49;;;;;;;3.67;3.07;;;20.50;45.00;;;;;;5008379;28;20420;-63
2024/03/17 11:54:20;;;;;;;3.37;3.07;;;20.70;45.30;;;;;;5009821;28;21073;-63
2024/03/17 11:56:48;;;;;;;3.00;2.67;;;20.90;45.00;;;;;;5006329;28;20866;-62
2024/03/17 11:59:17;;;;;;;2.90;2.60;;;20.90;44.50;;;;;;5008872;28;21047;-64
2024/03/17 12:01:49;;;;;;;5.33;2.53;;;21.00;44.60;;;;;;5010713;28;20531;-62
2024/03/17 12:04:16;;;;;;;2.60;2.40;;;21.20;45.20;;;;;;5007644;28;20882;-61
2024/03/17 12:06:52;;;;;;;3.53;3.23;;;21.30;44.30;;;;;;5007003;28;20445;-61
2024/03/17 12:09:21;;;;;;;5.23;3.20;;;21.50;44.90;;;;;;5006582;28;20446;-62
2024/03/17 12:12:01;;;;;;;3.37;2.90;;;21.40;44.30;;;;;;5008351;28;20414;-64
2024/03/17 12:14:28;;;;;;;3.23;2.93;;;21.50;44.70;;;;;;5006315;28;20415;-63
2024/03/17 12:16:56;;;;;;;4.20;2.83;;;21.60;43.30;;;;;;5004968;28;20981;-63
2024/03/17 12:19:22;;;;;;;4.47;3.37;;;21.60;43.50;;;;;;5003852;28;20495;-62
2024/03/17 12:21:50;;;;;;;3.33;3.03;;;21.70;44.20;;;;;;5004700;28;20460;-63
2024/03/17 12:24:23;;;;;;;3.70;3.07;;;21.80;45.60;;;;;;5010221;28;20509;-65
2024/03/17 12:26:50;;;;;;;3.30;3.00;;;21.80;44.40;;;;;;5007848;28;20441;-64
2024/03/17 12:29:41;;;;;;;3.20;2.70;;;21.90;43.60;;;;;;5007256;28;20420;-63
2024/03/17 12:32:18;;;;;;;2.70;2.50;;;22.00;43.40;;;;;;5004630;28;20437;-64
2024/03/17 12:34:45;;;;;;;2.90;2.70;;;22.00;44.50;;;;;;5011310;28;20843;-61
2024/03/17 12:37:33;;;;;;;3.17;2.87;;;22.20;42.80;;;;;;5009582;28;20500;-63
2024/03/17 12:39:59;;;;;;;5.13;2.97;;;22.10;43.40;;;;;;5009970;28;20436;-64
2024/03/17 12:42:27;;;;;;;3.10;2.80;;;22.20;42.50;;;;;;5007363;28;20517;-65
2024/03/17 12:44:53;;;;;;;3.83;2.90;;;22.30;42.90;;;;;;5007966;28;20421;-64